Ivinhema, Brazil
Current Conditions -  °F | °C
As of 9:00 PM on Sunday 23 Nov 2014 (Local Time) from SBCG Reporting Station
Light Rain Light Rain  
Wind Chill: 72°   Ceiling: 10000
Heat Index: 72°   Visibility: 4mi
Dew Point: 70°   Wind: 2mph
Humidity: 94%   Direction: 60°ENE
Pressure: 29.88"   Gusts: NA
Location:  22.3°S, 53.82°W
Report Text: SBCG 240000Z 06002KT 7000 -RA FEW004 BKN100 22/21 Q1012 RERA
Loading
Personal Weather Stations






























Interactive Weather Map New forecast layout! Learn more

10-Day Weather Forecast

Advertisements
Track Severe Weather on mobile